sensor_id;sensor_type;location;lat;lon;timestamp;pressure;altitude;pressure_sealevel;temperature;humidity
2711;BME280;20721;47.402;8.550;2023-09-19T00:00:58;96012;;;20.00;56.40
2711;BME280;20721;47.402;8.550;2023-09-19T00:03:00;96015;;;19.98;56.98
2711;BME280;20721;47.402;8.550;2023-09-19T00:04:58;96012;;;20.05;56.94
2711;BME280;20721;47.402;8.550;2023-09-19T00:06:59;96021;;;20.11;57.41
2711;BME280;20721;47.402;8.550;2023-09-19T00:09:00;96023;;;20.13;57.84
2711;BME280;20721;47.402;8.550;2023-09-19T00:11:59;96024;;;20.16;58.32
2711;BME280;20721;47.402;8.550;2023-09-19T00:13:59;96023;;;20.09;57.82
2711;BME280;20721;47.402;8.550;2023-09-19T00:15:59;96029;;;20.08;58.22
2711;BME280;20721;47.402;8.550;2023-09-19T00:17:58;96030;;;20.01;58.37
2711;BME280;20721;47.402;8.550;2023-09-19T00:19:58;96020;;;20.01;59.58
2711;BME280;20721;47.402;8.550;2023-09-19T00:21:58;96025;;;20.03;58.82
2711;BME280;20721;47.402;8.550;2023-09-19T00:23:58;96028;;;20.02;58.65
2711;BME280;20721;47.402;8.550;2023-09-19T00:25:59;96027;;;19.93;58.97
2711;BME280;20721;47.402;8.550;2023-09-19T00:27:58;96033;;;19.81;58.83
2711;BME280;20721;47.402;8.550;2023-09-19T00:29:59;96039;;;19.82;59.50
2711;BME280;20721;47.402;8.550;2023-09-19T00:31:59;96037;;;19.89;59.22
2711;BME280;20721;47.402;8.550;2023-09-19T00:34:00;96032;;;19.93;59.36
2711;BME280;20721;47.402;8.550;2023-09-19T00:35:59;96032;;;19.96;59.44
2711;BME280;20721;47.402;8.550;2023-09-19T00:37:58;96037;;;19.92;58.67
2711;BME280;20721;47.402;8.550;2023-09-19T00:41:01;96040;;;19.91;59.29
2711;BME280;20721;47.402;8.550;2023-09-19T00:43:01;96040;;;19.93;59.05
2711;BME280;20721;47.402;8.550;2023-09-19T00:44:59;96033;;;19.96;59.44
2711;BME280;20721;47.402;8.550;2023-09-19T00:46:59;96034;;;19.99;58.98
2711;BME280;20721;47.402;8.550;2023-09-19T00:50:59;96038;;;19.99;58.98
2711;BME280;20721;47.402;8.550;2023-09-19T00:52:58;96039;;;19.99;59.44
2711;BME280;20721;47.402;8.550;2023-09-19T00:55:58;96039;;;20.02;59.22
2711;BME280;20721;47.402;8.550;2023-09-19T00:58:58;96037;;;20.03;59.26
2711;BME280;20721;47.402;8.550;2023-09-19T01:00:59;96042;;;20.04;59.67
2711;BME280;20721;47.402;8.550;2023-09-19T01:03:59;96043;;;20.02;59.61
2711;BME280;20721;47.402;8.550;2023-09-19T01:05:59;96043;;;20.03;59.41
2711;BME280;20721;47.402;8.550;2023-09-19T01:07:58;96046;;;20.01;59.28
2711;BME280;20721;47.402;8.550;2023-09-19T01:09:59;96043;;;20.00;59.50
2711;BME280;20721;47.402;8.550;2023-09-19T01:12:00;96043;;;19.99;58.85
2711;BME280;20721;47.402;8.550;2023-09-19T01:14:02;96047;;;19.92;58.93
2711;BME280;20721;47.402;8.550;2023-09-19T01:16:02;96050;;;19.92;59.21
2711;BME280;20721;47.402;8.550;2023-09-19T01:18:02;96049;;;19.92;59.19
2711;BME280;20721;47.402;8.550;2023-09-19T01:20:17;96052;;;19.84;59.08
2711;BME280;20721;47.402;8.550;2023-09-19T01:22:03;96053;;;19.78;59.50
2711;BME280;20721;47.402;8.550;2023-09-19T01:27:06;96057;;;19.84;58.95
2711;BME280;20721;47.402;8.550;2023-09-19T01:30:06;96057;;;19.84;58.85
2711;BME280;20721;47.402;8.550;2023-09-19T01:32:59;96054;;;19.82;58.82
2711;BME280;20721;47.402;8.550;2023-09-19T01:35:04;96051;;;19.73;58.66
2711;BME280;20721;47.402;8.550;2023-09-19T01:37:59;96050;;;19.73;58.86
2711;BME280;20721;47.402;8.550;2023-09-19T01:40:09;96048;;;19.73;58.67
2711;BME280;20721;47.402;8.550;2023-09-19T01:42:04;96047;;;19.70;59.22
2711;BME280;20721;47.402;8.550;2023-09-19T01:43:59;96050;;;19.75;58.67
2711;BME280;20721;47.402;8.550;2023-09-19T01:46:03;96048;;;19.77;58.42
2711;BME280;20721;47.402;8.550;2023-09-19T01:48:03;96049;;;19.84;58.40
2711;BME280;20721;47.402;8.550;2023-09-19T01:50:11;96050;;;19.81;58.27
2711;BME280;20721;47.402;8.550;2023-09-19T01:52:02;96050;;;19.72;58.27
2711;BME280;20721;47.402;8.550;2023-09-19T01:54:03;96052;;;19.74;58.06
2711;BME280;20721;47.402;8.550;2023-09-19T01:55:59;96054;;;19.79;58.84
2711;BME280;20721;47.402;8.550;2023-09-19T01:58:59;96056;;;19.83;57.73
2711;BME280;20721;47.402;8.550;2023-09-19T02:01:00;96054;;;19.66;57.39
2711;BME280;20721;47.402;8.550;2023-09-19T02:03:59;96054;;;19.67;57.57
2711;BME280;20721;47.402;8.550;2023-09-19T02:05:59;96052;;;19.64;57.65
2711;BME280;20721;47.402;8.550;2023-09-19T02:07:59;96051;;;19.59;57.74
2711;BME280;20721;47.402;8.550;2023-09-19T02:10:00;96049;;;19.59;57.42
2711;BME280;20721;47.402;8.550;2023-09-19T02:11:59;96050;;;19.60;57.69
2711;BME280;20721;47.402;8.550;2023-09-19T02:13:59;96052;;;19.64;57.21
2711;BME280;20721;47.402;8.550;2023-09-19T02:15:59;96054;;;19.68;57.35
2711;BME280;20721;47.402;8.550;2023-09-19T02:17:59;96054;;;19.70;57.20
2711;BME280;20721;47.402;8.550;2023-09-19T02:20:00;96060;;;19.71;57.62
2711;BME280;20721;47.402;8.550;2023-09-19T02:21:59;96065;;;19.78;57.67
2711;BME280;20721;47.402;8.550;2023-09-19T02:23:59;96063;;;19.70;57.07
2711;BME280;20721;47.402;8.550;2023-09-19T02:26:00;96063;;;19.70;57.10
2711;BME280;20721;47.402;8.550;2023-09-19T02:27:59;96064;;;19.75;57.04
2711;BME280;20721;47.402;8.550;2023-09-19T02:30:04;96065;;;19.70;57.79
2711;BME280;20721;47.402;8.550;2023-09-19T02:31:59;96067;;;19.77;56.95
2711;BME280;20721;47.402;8.550;2023-09-19T02:34:00;96074;;;19.81;57.51
2711;BME280;20721;47.402;8.550;2023-09-19T02:35:59;96072;;;19.83;57.24
2711;BME280;20721;47.402;8.550;2023-09-19T02:37:59;96068;;;19.85;57.03
2711;BME280;20721;47.402;8.550;2023-09-19T02:39:59;96075;;;19.85;56.77
2711;BME280;20721;47.402;8.550;2023-09-19T02:43:59;96079;;;19.87;56.79
2711;BME280;20721;47.402;8.550;2023-09-19T02:45:59;96077;;;19.89;56.78
2711;BME280;20721;47.402;8.550;2023-09-19T02:47:59;96079;;;19.89;56.70
2711;BME280;20721;47.402;8.550;2023-09-19T02:49:59;96075;;;19.91;56.76
2711;BME280;20721;47.402;8.550;2023-09-19T02:51:59;96073;;;19.89;56.54
2711;BME280;20721;47.402;8.550;2023-09-19T02:53:59;96068;;;19.79;56.82
2711;BME280;20721;47.402;8.550;2023-09-19T02:55:59;96065;;;19.73;56.51
2711;BME280;20721;47.402;8.550;2023-09-19T02:58:00;96064;;;19.43;57.10
2711;BME280;20721;47.402;8.550;2023-09-19T03:00:00;96065;;;19.33;57.37
2711;BME280;20721;47.402;8.550;2023-09-19T03:02:00;96064;;;19.18;57.70
2711;BME280;20721;47.402;8.550;2023-09-19T03:03:59;96065;;;19.19;57.74
2711;BME280;20721;47.402;8.550;2023-09-19T03:05:59;96064;;;19.02;58.17
2711;BME280;20721;47.402;8.550;2023-09-19T03:08:02;96061;;;18.77;58.65
2711;BME280;20721;47.402;8.550;2023-09-19T03:09:59;96063;;;18.84;59.01
2711;BME280;20721;47.402;8.550;2023-09-19T03:11:59;96061;;;18.92;58.82
2711;BME280;20721;47.402;8.550;2023-09-19T03:13:59;96065;;;19.17;58.29
2711;BME280;20721;47.402;8.550;2023-09-19T03:15:59;96066;;;19.28;57.60
2711;BME280;20721;47.402;8.550;2023-09-19T03:17:59;96068;;;19.39;57.41
2711;BME280;20721;47.402;8.550;2023-09-19T03:19:59;96068;;;19.43;56.77
2711;BME280;20721;47.402;8.550;2023-09-19T03:21:59;96074;;;19.49;56.71
2711;BME280;20721;47.402;8.550;2023-09-19T03:25:00;96074;;;19.56;56.54
2711;BME280;20721;47.402;8.550;2023-09-19T03:26:59;96075;;;19.60;56.27
2711;BME280;20721;47.402;8.550;2023-09-19T03:29:59;96069;;;19.64;55.98
2711;BME280;20721;47.402;8.550;2023-09-19T03:31:59;96075;;;19.74;55.87
2711;BME280;20721;47.402;8.550;2023-09-19T03:33:59;96072;;;19.82;55.93
2711;BME280;20721;47.402;8.550;2023-09-19T03:36:59;96072;;;19.82;56.07
2711;BME280;20721;47.402;8.550;2023-09-19T03:38:59;96070;;;19.76;56.00
2711;BME280;20721;47.402;8.550;2023-09-19T03:41:59;96069;;;19.75;56.15
2711;BME280;20721;47.402;8.550;2023-09-19T03:43:59;96071;;;19.76;55.99
2711;BME280;20721;47.402;8.550;2023-09-19T03:46:02;96075;;;19.77;55.80
2711;BME280;20721;47.402;8.550;2023-09-19T03:47:59;96071;;;19.75;55.70
2711;BME280;20721;47.402;8.550;2023-09-19T03:49:59;96065;;;19.70;55.59
2711;BME280;20721;47.402;8.550;2023-09-19T03:52:59;96066;;;19.72;55.60
2711;BME280;20721;47.402;8.550;2023-09-19T03:56:59;96059;;;19.73;55.55
2711;BME280;20721;47.402;8.550;2023-09-19T03:58:59;96060;;;19.77;55.39
2711;BME280;20721;47.402;8.550;2023-09-19T04:01:00;96060;;;19.77;55.34
2711;BME280;20721;47.402;8.550;2023-09-19T04:03:02;96061;;;19.80;55.19
2711;BME280;20721;47.402;8.550;2023-09-19T04:04:59;96059;;;19.72;55.18
2711;BME280;20721;47.402;8.550;2023-09-19T04:07:59;96056;;;19.72;55.26
2711;BME280;20721;47.402;8.550;2023-09-19T04:09:59;96054;;;19.48;55.50
2711;BME280;20721;47.402;8.550;2023-09-19T04:11:59;96060;;;19.46;55.62
2711;BME280;20721;47.402;8.550;2023-09-19T04:13:59;96060;;;19.44;55.68
2711;BME280;20721;47.402;8.550;2023-09-19T04:15:59;96071;;;19.27;55.87
2711;BME280;20721;47.402;8.550;2023-09-19T04:17:59;96070;;;19.16;56.02
2711;BME280;20721;47.402;8.550;2023-09-19T04:19:59;96070;;;19.18;55.75
2711;BME280;20721;47.402;8.550;2023-09-19T04:21:59;96070;;;19.30;55.72
2711;BME280;20721;47.402;8.550;2023-09-19T04:23:59;96071;;;19.45;55.09
2711;BME280;20721;47.402;8.550;2023-09-19T04:25:59;96073;;;19.51;55.04
2711;BME280;20721;47.402;8.550;2023-09-19T04:27:59;96076;;;19.56;54.99
2711;BME280;20721;47.402;8.550;2023-09-19T04:29:59;96076;;;19.55;54.75
2711;BME280;20721;47.402;8.550;2023-09-19T04:31:59;96075;;;19.57;55.14
2711;BME280;20721;47.402;8.550;2023-09-19T04:34:05;96075;;;19.67;54.64
2711;BME280;20721;47.402;8.550;2023-09-19T04:37:00;96075;;;19.67;54.41
2711;BME280;20721;47.402;8.550;2023-09-19T04:38:59;96080;;;19.72;54.58
2711;BME280;20721;47.402;8.550;2023-09-19T04:40:59;96081;;;19.75;54.28
2711;BME280;20721;47.402;8.550;2023-09-19T04:43:00;96089;;;19.62;54.74
2711;BME280;20721;47.402;8.550;2023-09-19T04:44:59;96090;;;19.64;54.69
2711;BME280;20721;47.402;8.550;2023-09-19T04:47:59;96085;;;19.66;54.68
2711;BME280;20721;47.402;8.550;2023-09-19T04:49:59;96087;;;19.67;54.66
2711;BME280;20721;47.402;8.550;2023-09-19T04:51:59;96094;;;19.66;55.01
2711;BME280;20721;47.402;8.550;2023-09-19T04:53:59;96101;;;19.65;54.85
2711;BME280;20721;47.402;8.550;2023-09-19T04:55:59;96103;;;19.60;54.65
2711;BME280;20721;47.402;8.550;2023-09-19T04:57:59;96112;;;19.60;54.79
2711;BME280;20721;47.402;8.550;2023-09-19T04:59:59;96118;;;19.61;54.91
2711;BME280;20721;47.402;8.550;2023-09-19T05:01:59;96121;;;19.52;55.07
2711;BME280;20721;47.402;8.550;2023-09-19T05:03:59;96124;;;19.53;55.16
2711;BME280;20721;47.402;8.550;2023-09-19T05:05:59;96125;;;19.52;55.50
2711;BME280;20721;47.402;8.550;2023-09-19T05:08:05;96129;;;19.60;55.20
2711;BME280;20721;47.402;8.550;2023-09-19T05:09:59;96129;;;19.61;55.40
2711;BME280;20721;47.402;8.550;2023-09-19T05:11:59;96130;;;19.67;55.13
2711;BME280;20721;47.402;8.550;2023-09-19T05:15:00;96134;;;19.72;55.12
2711;BME280;20721;47.402;8.550;2023-09-19T05:16:59;96136;;;19.78;55.13
2711;BME280;20721;47.402;8.550;2023-09-19T05:19:00;96135;;;19.81;55.20
2711;BME280;20721;47.402;8.550;2023-09-19T05:21:01;96142;;;19.80;55.20
2711;BME280;20721;47.402;8.550;2023-09-19T05:23:59;96147;;;19.72;55.45
2711;BME280;20721;47.402;8.550;2023-09-19T05:25:59;96154;;;19.74;55.70
2711;BME280;20721;47.402;8.550;2023-09-19T05:28:00;96149;;;19.81;55.60
2711;BME280;20721;47.402;8.550;2023-09-19T05:29:59;96151;;;19.85;55.40
2711;BME280;20721;47.402;8.550;2023-09-19T05:31:59;96148;;;19.75;55.33
2711;BME280;20721;47.402;8.550;2023-09-19T05:34:00;96152;;;19.70;55.57
2711;BME280;20721;47.402;8.550;2023-09-19T05:35:59;96150;;;19.75;55.44
2711;BME280;20721;47.402;8.550;2023-09-19T05:37:59;96153;;;19.77;55.48
2711;BME280;20721;47.402;8.550;2023-09-19T05:39:59;96158;;;19.81;55.70
2711;BME280;20721;47.402;8.550;2023-09-19T05:42:00;96157;;;19.83;55.88
2711;BME280;20721;47.402;8.550;2023-09-19T05:45:00;96161;;;19.85;55.80
2711;BME280;20721;47.402;8.550;2023-09-19T05:46:59;96156;;;19.91;55.79
2711;BME280;20721;47.402;8.550;2023-09-19T05:48:59;96159;;;19.93;55.47
2711;BME280;20721;47.402;8.550;2023-09-19T05:51:01;96162;;;19.91;55.65
2711;BME280;20721;47.402;8.550;2023-09-19T05:53:59;96169;;;19.88;55.68
2711;BME280;20721;47.402;8.550;2023-09-19T05:56:00;96168;;;19.79;55.92
2711;BME280;20721;47.402;8.550;2023-09-19T05:57:59;96170;;;19.74;56.12
2711;BME280;20721;47.402;8.550;2023-09-19T06:00:59;96173;;;19.76;56.21
2711;BME280;20721;47.402;8.550;2023-09-19T06:02:59;96172;;;19.81;56.13
2711;BME280;20721;47.402;8.550;2023-09-19T06:04:59;96176;;;19.80;56.36
2711;BME280;20721;47.402;8.550;2023-09-19T06:07:00;96176;;;19.74;56.26
2711;BME280;20721;47.402;8.550;2023-09-19T06:08:59;96178;;;19.52;57.19
2711;BME280;20721;47.402;8.550;2023-09-19T06:10:59;96178;;;19.60;57.09
2711;BME280;20721;47.402;8.550;2023-09-19T06:14:01;96170;;;19.69;57.05
2711;BME280;20721;47.402;8.550;2023-09-19T06:16:04;96175;;;19.76;56.67
2711;BME280;20721;47.402;8.550;2023-09-19T06:17:59;96176;;;19.82;56.47
2711;BME280;20721;47.402;8.550;2023-09-19T06:19:59;96176;;;19.96;56.62
2711;BME280;20721;47.402;8.550;2023-09-19T06:21:59;96174;;;20.27;55.74
2711;BME280;20721;47.402;8.550;2023-09-19T06:23:59;96179;;;20.68;54.65
2711;BME280;20721;47.402;8.550;2023-09-19T06:25:59;96184;;;21.51;52.70
2711;BME280;20721;47.402;8.550;2023-09-19T06:27:59;96186;;;23.62;48.17
2711;BME280;20721;47.402;8.550;2023-09-19T06:29:59;96182;;;23.91;46.87
2711;BME280;20721;47.402;8.550;2023-09-19T06:33:00;96187;;;23.86;46.77
2711;BME280;20721;47.402;8.550;2023-09-19T06:35:00;96182;;;23.24;47.92
2711;BME280;20721;47.402;8.550;2023-09-19T06:37:00;96183;;;22.68;49.28
2711;BME280;20721;47.402;8.550;2023-09-19T06:38:59;96182;;;22.46;50.10
2711;BME280;20721;47.402;8.550;2023-09-19T06:41:01;96180;;;22.11;50.60
2711;BME280;20721;47.402;8.550;2023-09-19T06:43:01;96183;;;21.93;51.15
2711;BME280;20721;47.402;8.550;2023-09-19T06:44:59;96187;;;22.13;50.66
2711;BME280;20721;47.402;8.550;2023-09-19T06:46:59;96183;;;22.61;49.65
2711;BME280;20721;47.402;8.550;2023-09-19T06:48:59;96188;;;22.23;50.50
2711;BME280;20721;47.402;8.550;2023-09-19T06:51:04;96192;;;21.95;51.31
2711;BME280;20721;47.402;8.550;2023-09-19T06:53:00;96196;;;21.75;52.14
2711;BME280;20721;47.402;8.550;2023-09-19T06:54:59;96193;;;21.61;52.87
2711;BME280;20721;47.402;8.550;2023-09-19T06:56:59;96198;;;21.46;53.27
2711;BME280;20721;47.402;8.550;2023-09-19T06:59:00;96197;;;21.38;53.63
2711;BME280;20721;47.402;8.550;2023-09-19T07:00:59;96200;;;21.27;53.65
2711;BME280;20721;47.402;8.550;2023-09-19T07:03:02;96202;;;21.17;53.98
2711;BME280;20721;47.402;8.550;2023-09-19T07:04:59;96202;;;21.10;54.07
2711;BME280;20721;47.402;8.550;2023-09-19T07:06:59;96205;;;20.97;54.32
2711;BME280;20721;47.402;8.550;2023-09-19T07:09:00;96210;;;20.99;54.59
2711;BME280;20721;47.402;8.550;2023-09-19T07:11:00;96207;;;20.98;54.73
2711;BME280;20721;47.402;8.550;2023-09-19T07:13:00;96205;;;20.89;54.94
2711;BME280;20721;47.402;8.550;2023-09-19T07:14:59;96208;;;20.94;55.15
2711;BME280;20721;47.402;8.550;2023-09-19T07:17:00;96210;;;20.97;55.18
2711;BME280;20721;47.402;8.550;2023-09-19T07:18:59;96210;;;20.93;54.94
2711;BME280;20721;47.402;8.550;2023-09-19T07:21:04;96211;;;20.85;54.95
2711;BME280;20721;47.402;8.550;2023-09-19T07:23:00;96208;;;20.69;55.57
2711;BME280;20721;47.402;8.550;2023-09-19T07:24:59;96212;;;20.51;55.97
2711;BME280;20721;47.402;8.550;2023-09-19T07:26:59;96211;;;20.58;55.88
2711;BME280;20721;47.402;8.550;2023-09-19T07:29:02;96214;;;20.81;55.57
2711;BME280;20721;47.402;8.550;2023-09-19T07:31:01;96209;;;21.24;54.58
2711;BME280;20721;47.402;8.550;2023-09-19T07:33:00;96211;;;21.37;54.25
2711;BME280;20721;47.402;8.550;2023-09-19T07:35:00;96207;;;21.40;54.08
2711;BME280;20721;47.402;8.550;2023-09-19T07:36:59;96213;;;21.36;54.20
2711;BME280;20721;47.402;8.550;2023-09-19T07:39:10;96217;;;21.42;54.12
2711;BME280;20721;47.402;8.550;2023-09-19T07:41:00;96220;;;21.33;53.88
2711;BME280;20721;47.402;8.550;2023-09-19T07:43:01;96227;;;20.63;55.28
2711;BME280;20721;47.402;8.550;2023-09-19T07:45:00;96232;;;20.48;55.89
2711;BME280;20721;47.402;8.550;2023-09-19T07:47:03;96241;;;20.55;55.67
2711;BME280;20721;47.402;8.550;2023-09-19T07:50:02;96242;;;20.49;55.78
2711;BME280;20721;47.402;8.550;2023-09-19T07:52:00;96243;;;20.66;55.36
2711;BME280;20721;47.402;8.550;2023-09-19T07:54:00;96242;;;20.65;55.06
2711;BME280;20721;47.402;8.550;2023-09-19T07:56:01;96243;;;21.38;54.33
2711;BME280;20721;47.402;8.550;2023-09-19T07:58:00;96250;;;22.17;51.11
2711;BME280;20721;47.402;8.550;2023-09-19T07:59:59;96250;;;22.47;50.95
2711;BME280;20721;47.402;8.550;2023-09-19T08:02:00;96255;;;23.64;48.21
2711;BME280;20721;47.402;8.550;2023-09-19T08:04:00;96250;;;23.49;48.34
2711;BME280;20721;47.402;8.550;2023-09-19T08:06:00;96252;;;23.49;48.30
2711;BME280;20721;47.402;8.550;2023-09-19T08:08:02;96248;;;23.41;48.30
2711;BME280;20721;47.402;8.550;2023-09-19T08:10:00;96249;;;23.21;48.44
2711;BME280;20721;47.402;8.550;2023-09-19T08:12:02;96252;;;23.05;48.94
2711;BME280;20721;47.402;8.550;2023-09-19T08:14:00;96254;;;23.02;48.97
2711;BME280;20721;47.402;8.550;2023-09-19T08:16:00;96256;;;23.06;49.11
2711;BME280;20721;47.402;8.550;2023-09-19T08:18:00;96262;;;22.94;49.16
2711;BME280;20721;47.402;8.550;2023-09-19T08:20:01;96263;;;22.76;49.67
2711;BME280;20721;47.402;8.550;2023-09-19T08:22:00;96264;;;22.35;50.28
2711;BME280;20721;47.402;8.550;2023-09-19T08:24:01;96267;;;22.09;50.42
2711;BME280;20721;47.402;8.550;2023-09-19T08:26:03;96268;;;21.88;51.46
2711;BME280;20721;47.402;8.550;2023-09-19T08:28:01;96272;;;21.68;52.10
2711;BME280;20721;47.402;8.550;2023-09-19T08:30:00;96273;;;21.15;53.01
2711;BME280;20721;47.402;8.550;2023-09-19T08:32:00;96274;;;20.80;53.94
2711;BME280;20721;47.402;8.550;2023-09-19T08:34:00;96269;;;20.95;53.83
2711;BME280;20721;47.402;8.550;2023-09-19T08:36:00;96271;;;21.14;53.67
2711;BME280;20721;47.402;8.550;2023-09-19T08:38:03;96276;;;21.33;53.13
2711;BME280;20721;47.402;8.550;2023-09-19T08:40:00;96273;;;21.34;53.15
2711;BME280;20721;47.402;8.550;2023-09-19T08:42:00;96275;;;21.37;53.17
2711;BME280;20721;47.402;8.550;2023-09-19T08:44:01;96278;;;21.26;53.39
2711;BME280;20721;47.402;8.550;2023-09-19T08:46:16;96280;;;21.14;54.01
2711;BME280;20721;47.402;8.550;2023-09-19T08:48:08;96280;;;21.27;53.71
2711;BME280;20721;47.402;8.550;2023-09-19T08:50:04;96281;;;21.24;53.37
2711;BME280;20721;47.402;8.550;2023-09-19T08:52:05;96280;;;21.17;54.01
2711;BME280;20721;47.402;8.550;2023-09-19T08:55:01;96282;;;21.18;53.71
2711;BME280;20721;47.402;8.550;2023-09-19T08:57:03;96283;;;21.35;53.84
2711;BME280;20721;47.402;8.550;2023-09-19T08:59:01;96285;;;21.29;54.30
2711;BME280;20721;47.402;8.550;2023-09-19T09:01:01;96291;;;21.51;53.53
2711;BME280;20721;47.402;8.550;2023-09-19T09:03:00;96289;;;21.30;53.85
2711;BME280;20721;47.402;8.550;2023-09-19T09:05:00;96288;;;21.27;53.86
2711;BME280;20721;47.402;8.550;2023-09-19T09:07:00;96284;;;21.23;53.65
2711;BME280;20721;47.402;8.550;2023-09-19T09:09:00;96284;;;20.82;54.47
2711;BME280;20721;47.402;8.550;2023-09-19T09:12:00;96286;;;20.95;54.87
2711;BME280;20721;47.402;8.550;2023-09-19T09:14:00;96290;;;20.91;54.63
2711;BME280;20721;47.402;8.550;2023-09-19T09:16:00;96284;;;21.20;54.55
2711;BME280;20721;47.402;8.550;2023-09-19T09:18:00;96286;;;21.38;53.67
2711;BME280;20721;47.402;8.550;2023-09-19T09:20:00;96294;;;21.33;53.80
2711;BME280;20721;47.402;8.550;2023-09-19T09:22:08;96292;;;21.39;53.72
2711;BME280;20721;47.402;8.550;2023-09-19T09:24:00;96295;;;21.32;53.24
2711;BME280;20721;47.402;8.550;2023-09-19T09:26:02;96294;;;21.09;54.18
2711;BME280;20721;47.402;8.550;2023-09-19T09:28:01;96300;;;21.07;54.19
2711;BME280;20721;47.402;8.550;2023-09-19T09:30:00;96297;;;21.14;54.36
2711;BME280;20721;47.402;8.550;2023-09-19T09:32:15;96293;;;21.58;53.47
2711;BME280;20721;47.402;8.550;2023-09-19T09:34:00;96296;;;21.66;53.09
2711;BME280;20721;47.402;8.550;2023-09-19T09:36:01;96297;;;21.77;52.79
2711;BME280;20721;47.402;8.550;2023-09-19T09:38:06;96300;;;22.00;52.30
2711;BME280;20721;47.402;8.550;2023-09-19T09:40:11;96300;;;22.18;51.91
2711;BME280;20721;47.402;8.550;2023-09-19T09:42:00;96296;;;22.35;51.39
2711;BME280;20721;47.402;8.550;2023-09-19T09:44:02;96294;;;22.53;51.12
2711;BME280;20721;47.402;8.550;2023-09-19T09:46:10;96296;;;22.72;50.77
2711;BME280;20721;47.402;8.550;2023-09-19T09:48:03;96297;;;22.70;50.60
2711;BME280;20721;47.402;8.550;2023-09-19T09:50:07;96291;;;22.45;50.36
2711;BME280;20721;47.402;8.550;2023-09-19T09:52:01;96292;;;22.88;50.30
2711;BME280;20721;47.402;8.550;2023-09-19T09:54:16;96284;;;23.24;49.12
2711;BME280;20721;47.402;8.550;2023-09-19T09:58:18;96288;;;23.85;47.99
2711;BME280;20721;47.402;8.550;2023-09-19T10:00:11;96288;;;24.22;47.16
2711;BME280;20721;47.402;8.550;2023-09-19T10:02:01;96286;;;24.23;46.63
2711;BME280;20721;47.402;8.550;2023-09-19T10:04:00;96280;;;24.01;46.98
2711;BME280;20721;47.402;8.550;2023-09-19T10:06:02;96284;;;24.01;46.65
2711;BME280;20721;47.402;8.550;2023-09-19T10:08:12;96280;;;23.87;47.09
2711;BME280;20721;47.402;8.550;2023-09-19T10:10:09;96280;;;23.50;47.48
2711;BME280;20721;47.402;8.550;2023-09-19T10:12:03;96280;;;23.50;48.17
2711;BME280;20721;47.402;8.550;2023-09-19T10:14:01;96277;;;23.55;47.92
2711;BME280;20721;47.402;8.550;2023-09-19T10:16:05;96275;;;23.65;47.28
2711;BME280;20721;47.402;8.550;2023-09-19T10:18:00;96270;;;23.45;48.21
2711;BME280;20721;47.402;8.550;2023-09-19T10:20:10;96271;;;23.62;47.95
2711;BME280;20721;47.402;8.550;2023-09-19T10:22:01;96276;;;23.59;46.51
2711;BME280;20721;47.402;8.550;2023-09-19T10:24:00;96275;;;23.61;47.25
2711;BME280;20721;47.402;8.550;2023-09-19T10:26:01;96273;;;23.85;47.14
2711;BME280;20721;47.402;8.550;2023-09-19T10:28:02;96270;;;23.91;46.70
2711;BME280;20721;47.402;8.550;2023-09-19T10:30:00;96271;;;24.09;46.14
2711;BME280;20721;47.402;8.550;2023-09-19T10:32:01;96271;;;24.24;45.67
2711;BME280;20721;47.402;8.550;2023-09-19T10:34:02;96279;;;24.20;45.59
2711;BME280;20721;47.402;8.550;2023-09-19T10:36:00;96277;;;23.93;45.85
2711;BME280;20721;47.402;8.550;2023-09-19T10:38:00;96275;;;23.94;45.34
2711;BME280;20721;47.402;8.550;2023-09-19T10:40:00;96274;;;23.94;46.22
2711;BME280;20721;47.402;8.550;2023-09-19T10:42:02;96275;;;24.10;45.80
2711;BME280;20721;47.402;8.550;2023-09-19T10:44:04;96276;;;24.11;45.53
2711;BME280;20721;47.402;8.550;2023-09-19T10:46:01;96273;;;23.81;46.21
2711;BME280;20721;47.402;8.550;2023-09-19T10:48:02;96271;;;23.97;46.79
2711;BME280;20721;47.402;8.550;2023-09-19T10:50:00;96272;;;24.36;45.74
2711;BME280;20721;47.402;8.550;2023-09-19T10:52:00;96274;;;24.29;45.00
2711;BME280;20721;47.402;8.550;2023-09-19T10:56:01;96276;;;24.40;45.04
2711;BME280;20721;47.402;8.550;2023-09-19T10:58:00;96274;;;24.56;44.98
2711;BME280;20721;47.402;8.550;2023-09-19T11:00:11;96268;;;24.08;44.73
2711;BME280;20721;47.402;8.550;2023-09-19T11:02:15;96268;;;24.06;45.40
2711;BME280;20721;47.402;8.550;2023-09-19T11:06:01;96257;;;23.70;46.36
2711;BME280;20721;47.402;8.550;2023-09-19T11:08:04;96263;;;23.80;46.39
2711;BME280;20721;47.402;8.550;2023-09-19T11:10:02;96262;;;23.66;46.38
2711;BME280;20721;47.402;8.550;2023-09-19T11:12:00;96256;;;23.51;46.45
2711;BME280;20721;47.402;8.550;2023-09-19T11:14:37;96246;;;23.53;46.33
2711;BME280;20721;47.402;8.550;2023-09-19T11:19:07;96244;;;23.23;47.36
2711;BME280;20721;47.402;8.550;2023-09-19T11:23:18;96248;;;22.74;48.30
2711;BME280;20721;47.402;8.550;2023-09-19T11:25:41;96245;;;22.52;49.16
2711;BME280;20721;47.402;8.550;2023-09-19T11:27:09;96245;;;22.79;48.90
2711;BME280;20721;47.402;8.550;2023-09-19T11:29:24;96246;;;23.14;48.19
2711;BME280;20721;47.402;8.550;2023-09-19T11:33:18;96235;;;23.73;47.48
2711;BME280;20721;47.402;8.550;2023-09-19T11:35:06;96242;;;23.36;47.69
2711;BME280;20721;47.402;8.550;2023-09-19T11:37:01;96234;;;22.95;47.94
2711;BME280;20721;47.402;8.550;2023-09-19T11:39:18;96236;;;23.10;48.53
2711;BME280;20721;47.402;8.550;2023-09-19T11:43:00;96234;;;23.68;47.49
2711;BME280;20721;47.402;8.550;2023-09-19T11:45:00;96233;;;24.02;46.63
2711;BME280;20721;47.402;8.550;2023-09-19T11:47:03;96232;;;24.42;45.60
2711;BME280;20721;47.402;8.550;2023-09-19T11:49:05;96232;;;24.66;44.81
2711;BME280;20721;47.402;8.550;2023-09-19T11:51:14;96230;;;24.50;44.65
2711;BME280;20721;47.402;8.550;2023-09-19T11:53:00;96228;;;24.50;44.77
2711;BME280;20721;47.402;8.550;2023-09-19T11:56:00;96226;;;24.26;44.86
2711;BME280;20721;47.402;8.550;2023-09-19T11:58:00;96223;;;24.18;46.08
2711;BME280;20721;47.402;8.550;2023-09-19T12:00:04;96222;;;24.13;45.65
2711;BME280;20721;47.402;8.550;2023-09-19T12:02:01;96218;;;24.33;45.78
2711;BME280;20721;47.402;8.550;2023-09-19T12:04:02;96226;;;24.40;45.53